Time;durP1;ratioP1;P1;durP2;ratioP2;P2;SDS_P1;SDS_P2;PMS_P1;PMS_P2;Temp;Humidity;BMP_temperature;BMP_pressure;BME280_temperature;BME280_humidity;BME280_pressure;Samples;Min_cycle;Max_cycle;Signal;HPM_P1;HPM_P2
2022/11/20 00:01:48;;;;;;;8.05;3.45;;;1.60;99.90;;;;;;5053512;28;20119;-70
2022/11/20 00:04:13;;;;;;;5.82;2.40;;;1.60;99.90;;;;;;5053668;28;20071;-70
2022/11/20 00:06:39;;;;;;;10.23;3.75;;;1.60;99.90;;;;;;5053700;28;20033;-70
2022/11/20 00:09:05;;;;;;;7.05;3.00;;;1.50;99.90;;;;;;5053530;28;20027;-70
2022/11/20 00:11:31;;;;;;;8.95;3.10;;;1.50;99.90;;;;;;5053610;28;20021;-70
2022/11/20 00:13:59;;;;;;;11.25;4.88;;;1.50;99.90;;;;;;5053920;28;20029;-70
2022/11/20 00:16:27;;;;;;;7.28;3.45;;;1.50;99.90;;;;;;5053738;28;20056;-70
2022/11/20 00:18:53;;;;;;;6.85;3.03;;;1.50;99.90;;;;;;5053179;28;20396;-70
2022/11/20 00:21:24;;;;;;;15.65;3.22;;;1.50;99.90;;;;;;5053228;28;20021;-70
2022/11/20 00:23:52;;;;;;;6.85;2.75;;;1.50;99.90;;;;;;5053688;28;20032;-70
2022/11/20 00:26:20;;;;;;;8.32;2.83;;;1.40;99.90;;;;;;5053434;28;20096;-70
2022/11/20 00:28:51;;;;;;;7.03;2.90;;;1.50;99.90;;;;;;5052799;28;20055;-70
2022/11/20 00:31:17;;;;;;;4.18;2.83;;;1.40;99.90;;;;;;5053652;28;20036;-70
2022/11/20 00:33:43;;;;;;;11.32;3.45;;;1.40;99.90;;;;;;5053576;28;20029;-70
2022/11/20 00:36:12;;;;;;;14.85;4.18;;;1.40;99.90;;;;;;5052728;28;20025;-70
2022/11/20 00:38:38;;;;;;;6.43;3.13;;;1.40;99.90;;;;;;5053682;28;20039;-70
2022/11/20 00:41:05;;;;;;;10.27;3.25;;;1.40;99.90;;;;;;5053149;28;20032;-70
2022/11/20 00:43:31;;;;;;;4.95;2.53;;;1.40;99.90;;;;;;5052870;28;20025;-70
2022/11/20 00:46:12;;;;;;;13.18;4.72;;;1.40;99.90;;;;;;5053203;28;20051;-70
2022/11/20 00:48:37;;;;;;;7.85;3.63;;;1.40;99.90;;;;;;5053478;28;20024;-70
2022/11/20 00:51:03;;;;;;;7.60;3.33;;;1.40;99.90;;;;;;5052933;28;20132;-69
2022/11/20 00:53:31;;;;;;;11.18;3.40;;;1.40;99.90;;;;;;5052894;28;20036;-70
2022/11/20 00:56:03;;;;;;;11.25;3.47;;;1.40;99.90;;;;;;5053184;28;20102;-70
2022/11/20 00:58:33;;;;;;;12.57;3.67;;;1.40;99.90;;;;;;5055351;28;20035;-70
2022/11/20 01:01:08;;;;;;;5.72;3.30;;;1.40;99.90;;;;;;5056742;28;20025;-70
2022/11/20 01:03:36;;;;;;;8.85;3.50;;;1.40;99.90;;;;;;5057034;28;20131;-70
2022/11/20 01:06:04;;;;;;;9.32;3.17;;;1.40;99.90;;;;;;5057030;28;20108;-70
2022/11/20 01:08:31;;;;;;;7.10;3.42;;;1.30;99.90;;;;;;5056998;28;20017;-70
2022/11/20 01:11:02;;;;;;;6.65;3.28;;;1.30;99.90;;;;;;5055901;28;20060;-70
2022/11/20 01:13:38;;;;;;;6.05;3.47;;;1.30;99.90;;;;;;5056222;28;20033;-70
2022/11/20 01:16:14;;;;;;;7.40;3.47;;;1.20;99.90;;;;;;5057163;28;20021;-70
2022/11/20 01:18:41;;;;;;;7.15;3.25;;;1.20;99.90;;;;;;5055579;28;20029;-70
2022/11/20 01:21:10;;;;;;;8.93;3.70;;;1.20;99.90;;;;;;5056626;28;20024;-70
2022/11/20 01:23:38;;;;;;;14.43;3.42;;;1.20;99.90;;;;;;5056380;28;20101;-70
2022/11/20 01:26:06;;;;;;;11.32;4.25;;;1.20;99.90;;;;;;5056662;28;20044;-70
2022/11/20 01:28:35;;;;;;;13.25;3.58;;;1.10;99.90;;;;;;5056654;28;20021;-70
2022/11/20 01:31:01;;;;;;;7.38;3.03;;;1.10;99.90;;;;;;5056421;28;20095;-70
2022/11/20 01:33:27;;;;;;;12.35;3.47;;;1.10;99.90;;;;;;5054867;28;20104;-70
2022/11/20 01:36:02;;;;;;;8.75;3.50;;;1.10;99.90;;;;;;5057007;28;20371;-70
2022/11/20 01:38:27;;;;;;;12.93;3.55;;;1.10;99.90;;;;;;5056739;28;20103;-70
2022/11/20 01:40:56;;;;;;;12.50;3.40;;;1.00;99.90;;;;;;5056379;28;20112;-70
2022/11/20 01:43:22;;;;;;;11.40;3.78;;;0.90;99.90;;;;;;5055891;28;20025;-70
2022/11/20 01:46:16;;;;;;;7.53;3.45;;;0.90;99.90;;;;;;5056495;28;20021;-70
2022/11/20 01:48:48;;;;;;;7.22;3.05;;;0.90;99.90;;;;;;5056493;28;20021;-70
2022/11/20 01:51:41;;;;;;;8.75;3.47;;;0.90;99.90;;;;;;5056171;28;20029;-70
2022/11/20 01:54:10;;;;;;;13.98;3.20;;;0.90;99.90;;;;;;5055613;28;20039;-70
2022/11/20 01:56:40;;;;;;;10.73;4.05;;;0.90;99.90;;;;;;5055598;28;20024;-70
2022/11/20 01:59:08;;;;;;;9.23;3.45;;;0.80;99.90;;;;;;5054890;28;20104;-70
2022/11/20 02:01:34;;;;;;;9.68;2.97;;;0.90;99.90;;;;;;5055513;28;20056;-70
2022/11/20 02:04:00;;;;;;;3.83;2.75;;;0.80;99.90;;;;;;5057662;28;20064;-70
2022/11/20 02:06:44;;;;;;;8.70;3.25;;;0.90;99.90;;;;;;5075636;28;20505;-69
2022/11/20 02:09:10;;;;;;;5.07;2.67;;;0.90;99.90;;;;;;5072468;28;20034;-70
2022/11/20 02:11:35;;;;;;;4.88;3.28;;;0.90;99.90;;;;;;5055480;28;20096;-70
2022/11/20 02:14:01;;;;;;;5.93;2.95;;;0.80;99.90;;;;;;5055851;28;20111;-70
2022/11/20 02:16:26;;;;;;;12.75;3.22;;;0.80;99.90;;;;;;5055627;28;20029;-70
2022/11/20 02:18:54;;;;;;;7.70;2.72;;;0.70;99.90;;;;;;5055226;28;20465;-70
2022/11/20 02:21:52;;;;;;;8.07;3.15;;;0.80;99.90;;;;;;5054264;28;20108;-70
2022/11/20 02:24:19;;;;;;;9.60;2.67;;;0.80;99.90;;;;;;5055516;28;20095;-70
2022/11/20 02:27:02;;;;;;;8.57;3.65;;;0.70;99.90;;;;;;5055679;28;20463;-70
2022/11/20 02:29:45;;;;;;;7.40;2.50;;;0.70;99.90;;;;;;5055744;28;20029;-70
2022/11/20 02:32:25;;;;;;;6.28;3.60;;;0.70;99.90;;;;;;5075842;28;20050;-70
2022/11/20 02:34:51;;;;;;;8.15;3.08;;;0.70;99.90;;;;;;5075242;28;20484;-70
2022/11/20 02:37:17;;;;;;;8.50;3.47;;;0.70;99.90;;;;;;5075188;28;20032;-70
2022/11/20 02:39:45;;;;;;;7.70;3.25;;;0.80;99.90;;;;;;5075501;28;20055;-70
2022/11/20 02:42:11;;;;;;;10.00;3.88;;;0.70;99.90;;;;;;5074432;28;20041;-70
2022/11/20 02:44:37;;;;;;;4.38;2.65;;;0.80;99.90;;;;;;5075250;28;20024;-70
2022/11/20 02:47:03;;;;;;;6.68;3.42;;;0.80;99.90;;;;;;5075112;28;20064;-71
2022/11/20 02:49:28;;;;;;;7.88;3.45;;;0.70;99.90;;;;;;5053625;28;20108;-70
2022/11/20 02:51:54;;;;;;;6.95;2.97;;;0.70;99.90;;;;;;5054504;28;20025;-70
2022/11/20 02:54:19;;;;;;;7.45;3.20;;;0.70;99.90;;;;;;5055281;28;20086;-71
2022/11/20 02:56:45;;;;;;;8.85;3.10;;;0.70;99.90;;;;;;5054821;28;20078;-70
2022/11/20 02:59:10;;;;;;;6.25;2.80;;;0.70;99.90;;;;;;5054886;28;20025;-70
2022/11/20 03:01:36;;;;;;;10.13;3.25;;;0.70;99.90;;;;;;5054115;28;20397;-70
2022/11/20 03:04:01;;;;;;;5.38;3.17;;;0.80;99.90;;;;;;5054741;28;20066;-70
2022/11/20 03:06:27;;;;;;;5.07;3.22;;;0.80;99.90;;;;;;5055312;28;20031;-70
2022/11/20 03:08:53;;;;;;;10.32;3.38;;;0.80;99.90;;;;;;5054576;28;20032;-70
2022/11/20 03:11:19;;;;;;;12.00;3.58;;;0.70;99.90;;;;;;5054545;28;20046;-70
2022/11/20 03:13:45;;;;;;;7.10;3.08;;;0.70;99.90;;;;;;5052804;28;20029;-70
2022/11/20 03:16:14;;;;;;;4.43;3.00;;;0.70;99.90;;;;;;5054383;28;20044;-70
2022/11/20 03:18:41;;;;;;;21.90;3.83;;;0.70;99.90;;;;;;5054648;28;20033;-70
2022/11/20 03:21:07;;;;;;;4.63;2.88;;;0.70;99.90;;;;;;5053496;28;20064;-70
2022/11/20 03:23:33;;;;;;;9.40;3.13;;;0.70;99.90;;;;;;5054348;28;20074;-70
2022/11/20 03:26:14;;;;;;;6.47;3.50;;;0.70;99.90;;;;;;5054484;28;20025;-71
2022/11/20 03:28:40;;;;;;;8.05;3.28;;;0.80;99.90;;;;;;5053758;28;20059;-70
2022/11/20 03:31:12;;;;;;;11.60;3.90;;;0.80;99.90;;;;;;5054496;28;20052;-70
2022/11/20 03:33:39;;;;;;;11.30;3.15;;;0.90;99.90;;;;;;5055530;28;20028;-70
2022/11/20 03:36:06;;;;;;;8.20;3.63;;;0.90;99.90;;;;;;5054930;28;20100;-70
2022/11/20 03:38:32;;;;;;;8.05;3.45;;;1.00;99.90;;;;;;5055537;28;20553;-70
2022/11/20 03:41:19;;;;;;;9.52;3.50;;;1.00;99.90;;;;;;5053680;28;20021;-70
2022/11/20 03:43:51;;;;;;;5.72;3.40;;;1.10;99.90;;;;;;5053844;28;20063;-71
2022/11/20 03:46:17;;;;;;;5.28;3.30;;;1.00;99.90;;;;;;5053043;28;20032;-70
2022/11/20 03:48:42;;;;;;;7.78;3.10;;;1.10;99.90;;;;;;5054421;28;20029;-70
2022/11/20 03:51:08;;;;;;;6.38;2.83;;;1.10;99.90;;;;;;5054094;28;20029;-70
2022/11/20 03:53:33;;;;;;;3.85;2.80;;;1.20;99.90;;;;;;5053498;28;20098;-70
2022/11/20 03:55:59;;;;;;;5.70;2.85;;;1.20;99.90;;;;;;5053801;28;20472;-70
2022/11/20 03:58:24;;;;;;;5.22;3.33;;;1.20;99.90;;;;;;5053978;28;20472;-70
2022/11/20 04:00:50;;;;;;;11.63;3.15;;;1.20;99.90;;;;;;5053377;28;20543;-70
2022/11/20 04:03:15;;;;;;;5.97;3.40;;;1.20;99.90;;;;;;5054027;28;20033;-70
2022/11/20 04:05:41;;;;;;;4.93;2.90;;;1.20;99.90;;;;;;5053699;28;20032;-71
2022/11/20 04:08:07;;;;;;;5.63;2.88;;;1.20;99.90;;;;;;5054024;28;20060;-71
2022/11/20 04:10:32;;;;;;;6.72;2.83;;;1.20;99.90;;;;;;5053173;28;20473;-70
2022/11/20 04:12:58;;;;;;;5.65;3.38;;;1.20;99.90;;;;;;5053646;28;20028;-70
2022/11/20 04:15:23;;;;;;;7.00;3.42;;;1.20;99.90;;;;;;5053847;28;20075;-71
2022/11/20 04:17:49;;;;;;;12.68;3.28;;;1.10;99.90;;;;;;5054025;28;20021;-71
2022/11/20 04:20:14;;;;;;;5.32;3.58;;;1.10;99.90;;;;;;5053564;28;20020;-70
2022/11/20 04:22:40;;;;;;;5.85;2.90;;;1.20;99.90;;;;;;5052927;28;20450;-70
2022/11/20 04:25:05;;;;;;;5.03;3.08;;;1.20;99.90;;;;;;5053792;28;20028;-70
2022/11/20 04:27:31;;;;;;;6.13;3.08;;;1.10;99.90;;;;;;5053953;28;20480;-70
2022/11/20 04:29:56;;;;;;;6.97;3.47;;;1.10;99.90;;;;;;5052136;28;20090;-71
2022/11/20 04:32:22;;;;;;;8.95;3.95;;;1.10;99.90;;;;;;5053466;28;20029;-70
2022/11/20 04:34:48;;;;;;;8.60;3.53;;;1.10;99.90;;;;;;5051516;28;20029;-70
2022/11/20 04:37:13;;;;;;;10.30;3.42;;;1.10;99.90;;;;;;5053651;28;20127;-70
2022/11/20 04:39:39;;;;;;;5.68;3.78;;;1.10;99.90;;;;;;5052059;28;20086;-70
2022/11/20 04:44:48;;;;;;;;;;;1.10;99.90;;;;;;5053711;28;20036;-70
2022/11/20 04:47:13;;;;;;;10.95;3.00;;;1.10;99.90;;;;;;5053284;28;20288;-70
2022/11/20 04:49:39;;;;;;;9.80;3.88;;;1.10;99.90;;;;;;5052728;28;20096;-70
2022/11/20 04:52:05;;;;;;;4.40;3.20;;;1.00;99.90;;;;;;5051788;28;20025;-70
2022/11/20 04:54:31;;;;;;;9.18;3.42;;;1.10;99.90;;;;;;5053176;28;20083;-70
2022/11/20 04:56:56;;;;;;;6.40;3.58;;;1.10;99.90;;;;;;5053185;28;20112;-71
2022/11/20 04:59:22;;;;;;;5.32;4.00;;;1.00;99.90;;;;;;5053694;28;20473;-70
2022/11/20 05:04:18;;;;;;;8.18;4.05;;;1.00;99.90;;;;;;5094932;23;20134;-70
2022/11/20 05:06:45;;;;;;;8.02;4.15;;;0.90;99.90;;;;;;5072805;28;20467;-70
2022/11/20 05:09:11;;;;;;;4.78;3.65;;;0.90;99.90;;;;;;5072787;28;20020;-70
2022/11/20 05:11:36;;;;;;;6.10;4.28;;;0.90;99.90;;;;;;5072516;28;20028;-70
2022/11/20 05:14:02;;;;;;;10.35;4.88;;;0.80;99.90;;;;;;5072947;28;20051;-70
2022/11/20 05:16:27;;;;;;;10.38;4.13;;;0.80;99.90;;;;;;5073264;28;20031;-70
2022/11/20 05:18:54;;;;;;;9.75;4.25;;;0.80;99.90;;;;;;5072939;28;20025;-70
2022/11/20 05:21:20;;;;;;;8.82;4.07;;;0.80;99.90;;;;;;5072581;28;20027;-70
2022/11/20 05:23:46;;;;;;;7.25;4.82;;;0.80;99.90;;;;;;5072210;28;20395;-67
2022/11/20 05:26:15;;;;;;;7.03;4.53;;;0.80;99.90;;;;;;5072588;28;20024;-67
2022/11/20 05:28:40;;;;;;;8.52;4.68;;;0.80;99.90;;;;;;5072921;28;20027;-67
2022/11/20 05:31:12;;;;;;;12.13;4.72;;;0.80;99.90;;;;;;5072574;28;20103;-67
2022/11/20 05:33:40;;;;;;;7.82;4.07;;;0.80;99.90;;;;;;5072711;28;20032;-67
2022/11/20 05:36:07;;;;;;;10.07;4.18;;;0.80;99.90;;;;;;5071981;28;20020;-67
2022/11/20 05:38:32;;;;;;;7.07;4.35;;;0.80;99.90;;;;;;5070967;28;20060;-67
2022/11/20 05:41:06;;;;;;;8.13;5.03;;;0.80;99.90;;;;;;5072598;28;20037;-67
2022/11/20 05:43:35;;;;;;;11.02;4.47;;;0.80;99.90;;;;;;5072962;28;20021;-67
2022/11/20 05:46:02;;;;;;;7.47;4.40;;;0.70;99.90;;;;;;5076003;28;20055;-67
2022/11/20 05:48:27;;;;;;;6.10;4.05;;;0.70;99.90;;;;;;5076243;28;20020;-67
2022/11/20 05:50:53;;;;;;;6.20;4.13;;;0.60;99.90;;;;;;5075367;28;20098;-67
2022/11/20 05:53:18;;;;;;;9.27;4.85;;;0.50;99.90;;;;;;5076068;28;20032;-67
2022/11/20 05:55:44;;;;;;;6.50;3.97;;;0.40;99.90;;;;;;5075830;28;20028;-67
2022/11/20 05:58:09;;;;;;;4.68;3.50;;;0.20;99.90;;;;;;5076351;28;20028;-67
2022/11/20 06:00:35;;;;;;;8.88;3.97;;;0.10;99.90;;;;;;5076073;28;20028;-67
2022/11/20 06:03:01;;;;;;;8.70;3.65;;;0.10;99.90;;;;;;5074867;28;20110;-67
2022/11/20 06:05:26;;;;;;;4.68;3.60;;;0.00;99.90;;;;;;5075620;28;20035;-67
2022/11/20 06:07:52;;;;;;;5.15;3.45;;;-0.20;99.90;;;;;;5075767;28;20030;-67
2022/11/20 06:10:17;;;;;;;5.32;3.30;;;-0.30;99.90;;;;;;5076106;28;20035;-67
2022/11/20 06:12:43;;;;;;;7.03;4.50;;;-0.40;99.90;;;;;;5075016;28;20035;-67
2022/11/20 06:15:09;;;;;;;10.82;5.82;;;-0.50;99.90;;;;;;5075786;28;20052;-67
2022/11/20 06:17:34;;;;;;;8.85;5.10;;;-0.30;99.90;;;;;;5075689;28;20021;-67
2022/11/20 06:20:00;;;;;;;7.95;4.75;;;-0.30;99.90;;;;;;5074124;28;20082;-67
2022/11/20 06:22:26;;;;;;;8.18;5.10;;;-0.30;99.90;;;;;;5068979;28;20017;-67
2022/11/20 06:24:51;;;;;;;6.85;3.90;;;-0.40;99.90;;;;;;5056100;28;20025;-67
2022/11/20 06:27:17;;;;;;;7.72;4.13;;;-0.60;99.90;;;;;;5066731;28;20086;-67
2022/11/20 06:29:43;;;;;;;10.85;4.55;;;-0.60;99.90;;;;;;5054899;28;20025;-66
2022/11/20 06:32:09;;;;;;;10.25;4.38;;;-0.60;99.90;;;;;;5055609;28;20419;-67
2022/11/20 06:34:34;;;;;;;7.60;3.88;;;-0.70;99.90;;;;;;5054849;28;20025;-67
2022/11/20 06:37:00;;;;;;;10.02;4.40;;;-0.80;99.90;;;;;;5055094;28;20033;-67
2022/11/20 06:39:25;;;;;;;6.75;3.65;;;-0.90;99.90;;;;;;5055561;28;20380;-67
2022/11/20 06:41:50;;;;;;;4.82;3.70;;;-1.10;99.90;;;;;;5055018;28;20505;-67
2022/11/20 06:44:16;;;;;;;5.28;3.33;;;-1.10;99.90;;;;;;5054471;28;20036;-68
2022/11/20 06:46:41;;;;;;;7.07;4.40;;;-1.20;99.90;;;;;;5054867;28;20036;-67
2022/11/20 06:49:07;;;;;;;9.93;5.53;;;-1.30;99.90;;;;;;5054844;28;20025;-67
2022/11/20 06:51:33;;;;;;;20.00;10.75;;;-1.30;99.90;;;;;;5054297;28;20057;-67
2022/11/20 06:53:58;;;;;;;60.22;28.73;;;-1.40;99.90;;;;;;5054892;28;20056;-67
2022/11/20 06:56:24;;;;;;;32.70;15.35;;;-1.40;99.90;;;;;;5053674;28;20029;-66
2022/11/20 06:58:49;;;;;;;19.33;9.57;;;-1.30;99.90;;;;;;5054156;28;20036;-67
2022/11/20 07:01:15;;;;;;;18.30;7.93;;;-1.30;99.90;;;;;;5054639;28;20021;-67
2022/11/20 07:03:41;;;;;;;86.28;24.67;;;-1.30;99.90;;;;;;5054485;28;20036;-67
2022/11/20 07:06:08;;;;;;;29.13;12.65;;;-1.30;99.90;;;;;;5054598;28;20033;-67
2022/11/20 07:08:34;;;;;;;43.35;12.80;;;-1.40;99.90;;;;;;5071653;28;20029;-68
2022/11/20 07:11:02;;;;;;;84.45;24.20;;;-1.40;99.90;;;;;;5074089;28;20032;-67
2022/11/20 07:13:28;;;;;;;53.90;15.60;;;-1.40;99.90;;;;;;5074219;28;20108;-67
2022/11/20 07:15:54;;;;;;;22.27;8.40;;;-1.50;99.90;;;;;;5074310;28;20033;-68
2022/11/20 07:18:20;;;;;;;13.10;5.53;;;-1.60;99.90;;;;;;5074289;28;20024;-68
2022/11/20 07:20:45;;;;;;;8.55;5.45;;;-1.50;99.90;;;;;;5074138;28;20427;-68
2022/11/20 07:23:11;;;;;;;22.80;5.85;;;-1.30;99.90;;;;;;5073587;28;20445;-67
2022/11/20 07:25:36;;;;;;;12.18;5.75;;;-1.20;99.90;;;;;;5074394;28;20021;-67
2022/11/20 07:28:02;;;;;;;10.48;5.97;;;-1.10;99.90;;;;;;5073879;28;20480;-67
2022/11/20 07:30:28;;;;;;;14.55;5.82;;;-1.00;99.90;;;;;;5056130;28;20017;-67
2022/11/20 07:32:55;;;;;;;21.58;9.43;;;-0.90;99.90;;;;;;5073893;28;20480;-67
2022/11/20 07:35:21;;;;;;;28.90;10.20;;;-0.90;99.90;;;;;;5073866;28;20030;-67
2022/11/20 07:37:48;;;;;;;103.47;22.90;;;-0.70;99.90;;;;;;5073333;28;20117;-67
2022/11/20 07:40:14;;;;;;;165.40;31.20;;;-0.60;99.90;;;;;;5074007;28;20090;-67
2022/11/20 07:42:51;;;;;;;45.30;13.77;;;-0.50;99.90;;;;;;5055877;28;20024;-67
2022/11/20 07:45:18;;;;;;;30.05;10.15;;;-0.40;99.90;;;;;;5070797;28;20021;-67
2022/11/20 07:47:43;;;;;;;14.35;8.65;;;-0.40;99.90;;;;;;5053227;28;20063;-67
2022/11/20 07:50:09;;;;;;;12.43;7.43;;;-0.40;99.90;;;;;;5053684;28;20049;-67
2022/11/20 07:52:35;;;;;;;12.52;6.80;;;-0.30;99.90;;;;;;5054134;28;20484;-67
2022/11/20 07:55:00;;;;;;;17.50;7.28;;;-0.20;99.90;;;;;;5053608;28;20044;-67
2022/11/20 07:57:26;;;;;;;9.15;6.03;;;-0.20;99.90;;;;;;5053041;28;20116;-67
2022/11/20 07:59:51;;;;;;;10.45;6.35;;;-0.10;99.90;;;;;;5053840;28;20408;-67
2022/11/20 08:02:17;;;;;;;9.23;5.82;;;-0.10;99.90;;;;;;5053339;28;20091;-67
2022/11/20 08:04:42;;;;;;;7.03;5.20;;;-0.10;99.90;;;;;;5054083;28;20025;-67
2022/11/20 08:07:08;;;;;;;14.57;7.82;;;-0.20;99.90;;;;;;5053074;28;20033;-68
2022/11/20 08:09:33;;;;;;;11.52;8.10;;;-0.20;99.90;;;;;;5052891;28;20036;-67
2022/11/20 08:14:48;;;;;;;15.25;8.88;;;-0.30;99.90;;;;;;5033986;28;20044;-68
2022/11/20 08:17:13;;;;;;;25.15;11.98;;;-0.40;99.90;;;;;;5053326;28;20025;-68
2022/11/20 08:19:39;;;;;;;26.85;12.00;;;-0.30;99.90;;;;;;5053824;28;20384;-68
2022/11/20 08:22:04;;;;;;;39.35;14.77;;;-0.20;99.90;;;;;;5053062;28;20477;-67
2022/11/20 08:24:30;;;;;;;27.48;12.20;;;-0.20;99.90;;;;;;5052745;28;20039;-67
2022/11/20 08:26:58;;;;;;;20.63;10.10;;;-0.20;99.90;;;;;;5053984;28;20020;-67
2022/11/20 08:29:25;;;;;;;25.55;11.50;;;-0.10;99.90;;;;;;5053651;28;20029;-67
2022/11/20 08:31:51;;;;;;;17.13;8.82;;;-0.10;99.90;;;;;;5053360;28;20049;-67
2022/11/20 08:34:16;;;;;;;19.20;9.20;;;-0.10;99.90;;;;;;5053518;28;20072;-67
2022/11/20 08:36:42;;;;;;;25.70;9.32;;;0.00;99.90;;;;;;5053029;28;20389;-67
2022/11/20 08:39:07;;;;;;;28.95;12.98;;;0.00;99.90;;;;;;5051101;28;20036;-67
2022/11/20 08:41:33;;;;;;;40.22;12.90;;;-0.10;99.90;;;;;;5053752;28;20029;-67
2022/11/20 08:44:01;;;;;;;37.75;12.68;;;0.00;99.90;;;;;;5053242;28;20036;-67
2022/11/20 08:46:33;;;;;;;24.60;8.23;;;0.20;99.90;;;;;;5052999;28;20021;-67
2022/11/20 08:48:58;;;;;;;20.75;9.23;;;0.40;99.90;;;;;;5053288;28;20534;-67
2022/11/20 08:51:24;;;;;;;14.07;7.97;;;0.60;99.90;;;;;;5052404;28;20033;-67
2022/11/20 08:53:49;;;;;;;15.57;6.53;;;0.70;99.90;;;;;;5053074;28;20033;-67
2022/11/20 08:56:15;;;;;;;9.82;6.22;;;0.80;99.90;;;;;;5052874;28;20493;-67
2022/11/20 08:58:41;;;;;;;9.38;6.90;;;0.90;99.90;;;;;;5053452;28;20473;-67
2022/11/20 09:01:07;;;;;;;9.13;6.50;;;1.10;99.90;;;;;;5052790;28;20044;-67
2022/11/20 09:03:33;;;;;;;10.25;5.65;;;1.20;99.90;;;;;;5052107;28;20033;-67
2022/11/20 09:06:04;;;;;;;8.10;6.03;;;1.30;99.90;;;;;;5053187;28;20017;-68
2022/11/20 09:08:30;;;;;;;7.03;5.50;;;1.30;99.90;;;;;;5053096;28;20047;-67
2022/11/20 09:10:57;;;;;;;6.78;5.05;;;1.30;99.90;;;;;;5052762;28;20024;-68
2022/11/20 09:13:26;;;;;;;10.20;5.38;;;1.40;99.90;;;;;;5052749;28;20061;-68
2022/11/20 09:15:59;;;;;;;5.25;4.28;;;1.40;99.90;;;;;;5052736;28;20036;-67
2022/11/20 09:18:25;;;;;;;8.77;4.90;;;1.40;99.90;;;;;;5052410;28;20025;-70
2022/11/20 09:20:51;;;;;;;7.38;4.68;;;1.40;99.90;;;;;;5064416;28;20479;-70
2022/11/20 09:23:17;;;;;;;5.25;4.30;;;1.50;99.90;;;;;;5058744;28;20034;-70
2022/11/20 09:25:43;;;;;;;6.20;4.38;;;1.60;99.90;;;;;;5076642;28;20467;-70
2022/11/20 09:28:08;;;;;;;4.43;3.30;;;1.60;99.90;;;;;;5076951;28;20035;-70
2022/11/20 09:30:34;;;;;;;5.88;4.03;;;1.60;99.90;;;;;;5076390;28;20025;-70
2022/11/20 09:33:00;;;;;;;4.45;3.40;;;1.60;99.90;;;;;;5061537;28;20025;-70
2022/11/20 09:35:25;;;;;;;3.47;3.13;;;1.60;99.90;;;;;;5056333;28;20025;-70
2022/11/20 09:37:51;;;;;;;4.55;3.55;;;1.60;99.90;;;;;;5056235;28;20061;-70
2022/11/20 09:40:22;;;;;;;4.95;3.35;;;1.70;99.90;;;;;;5056183;28;20025;-70
2022/11/20 09:42:57;;;;;;;4.53;3.33;;;1.70;99.90;;;;;;5056021;28;20025;-70
2022/11/20 09:45:44;;;;;;;6.45;3.35;;;1.80;99.90;;;;;;5055632;28;20017;-70
2022/11/20 09:49:00;;;;;;;4.28;3.33;;;1.90;99.90;;;;;;5055625;28;20023;-70
2022/11/20 09:51:35;;;;;;;4.25;3.25;;;2.00;99.90;;;;;;4995345;28;20030;-70
2022/11/20 09:54:18;;;;;;;5.13;3.47;;;2.20;99.90;;;;;;5046131;28;20073;-68
2022/11/20 09:56:50;;;;;;;4.05;3.63;;;2.30;99.90;;;;;;5056202;28;20029;-68
2022/11/20 09:59:41;;;;;;;4.60;3.20;;;2.50;99.90;;;;;;5056122;28;20024;-68
2022/11/20 10:02:38;;;;;;;5.15;3.70;;;2.60;99.90;;;;;;5055529;28;20476;-67
2022/11/20 10:05:40;;;;;;;3.72;3.38;;;2.70;99.90;;;;;;5031746;28;20041;-68
2022/11/20 10:08:14;;;;;;;6.03;3.47;;;2.60;99.90;;;;;;5055705;28;20032;-67
2022/11/20 10:10:46;;;;;;;3.83;3.42;;;2.60;99.90;;;;;;5056445;28;20025;-68
2022/11/20 10:13:32;;;;;;;3.95;3.00;;;2.50;99.90;;;;;;5055710;28;20052;-68
2022/11/20 10:16:29;;;;;;;5.28;3.17;;;2.50;99.90;;;;;;5055782;28;20025;-67
2022/11/20 10:19:25;;;;;;;6.70;3.30;;;2.30;99.90;;;;;;5026640;28;20075;-68
2022/11/20 10:21:59;;;;;;;6.20;3.45;;;2.10;99.90;;;;;;5055655;28;20025;-67
2022/11/20 10:24:37;;;;;;;7.20;3.97;;;2.00;99.90;;;;;;5055482;28;20025;-67
2022/11/20 10:27:33;;;;;;;4.30;3.65;;;1.90;99.90;;;;;;5054813;28;20036;-67
2022/11/20 10:30:10;;;;;;;4.55;3.47;;;1.80;99.90;;;;;;5054955;28;20017;-68
2022/11/20 10:32:46;;;;;;;7.78;3.65;;;1.90;99.90;;;;;;5054907;28;20032;-67
2022/11/20 10:35:27;;;;;;;4.50;3.08;;;2.00;99.90;;;;;;5058134;28;20025;-68
2022/11/20 10:38:09;;;;;;;4.38;3.00;;;2.10;99.90;;;;;;5063465;28;20039;-68
2022/11/20 10:40:40;;;;;;;5.55;3.85;;;2.10;99.90;;;;;;5054246;28;20086;-68
2022/11/20 10:43:26;;;;;;;6.10;3.70;;;2.20;99.90;;;;;;5055147;28;20381;-67
2022/11/20 10:46:02;;;;;;;5.20;3.55;;;2.30;99.90;;;;;;5055106;28;20028;-68
2022/11/20 10:48:30;;;;;;;3.30;2.60;;;2.30;99.90;;;;;;5055368;28;20017;-67
2022/11/20 10:51:27;;;;;;;5.18;3.33;;;2.40;99.90;;;;;;5055168;28;20025;-68
2022/11/20 10:54:15;;;;;;;4.15;3.13;;;2.40;99.90;;;;;;5054284;28;20029;-68
2022/11/20 10:56:45;;;;;;;4.43;3.40;;;2.50;99.90;;;;;;5066998;28;20024;-68
2022/11/20 10:59:35;;;;;;;6.00;3.45;;;2.50;99.90;;;;;;5074667;28;20126;-68
2022/11/20 11:02:00;;;;;;;3.78;2.83;;;2.60;99.90;;;;;;5073997;28;20032;-67
2022/11/20 11:04:32;;;;;;;6.80;3.60;;;2.60;99.90;;;;;;5135560;23;20075;-72
2022/11/20 11:07:18;;;;;;;8.45;3.38;;;2.70;99.90;;;;;;5075024;28;20032;-72
2022/11/20 11:09:51;;;;;;;5.53;3.40;;;2.80;99.90;;;;;;5061261;28;20032;-72
2022/11/20 11:12:18;;;;;;;6.05;3.80;;;2.80;99.90;;;;;;5056858;28;20035;-71
2022/11/20 11:14:45;;;;;;;5.75;3.88;;;2.80;99.90;;;;;;5081807;23;20131;-72
2022/11/20 11:17:29;;;;;;;5.53;3.75;;;2.90;99.90;;;;;;5074170;28;20016;-72
2022/11/20 11:20:01;;;;;;;9.30;2.75;;;2.80;99.90;;;;;;5075022;28;20063;-72
2022/11/20 11:22:30;;;;;;;4.32;3.38;;;2.90;99.90;;;;;;5075100;28;20029;-72
2022/11/20 11:24:56;;;;;;;4.35;3.17;;;2.90;99.90;;;;;;5074759;28;20515;-72
2022/11/20 11:27:21;;;;;;;8.07;3.97;;;3.00;99.90;;;;;;5069005;28;20021;-72
2022/11/20 11:29:47;;;;;;;9.30;6.32;;;2.90;99.90;;;;;;5054022;28;20025;-72
2022/11/20 11:32:14;;;;;;;5.45;3.97;;;2.90;99.90;;;;;;5054647;28;20033;-72
2022/11/20 11:34:40;;;;;;;7.53;4.60;;;2.90;99.90;;;;;;5054324;28;20484;-72
2022/11/20 11:37:17;;;;;;;22.20;13.32;;;3.00;99.90;;;;;;5053818;28;20033;-72
2022/11/20 11:39:44;;;;;;;6.15;4.03;;;3.10;99.90;;;;;;5052977;28;20075;-72
2022/11/20 11:42:16;;;;;;;4.20;3.30;;;3.20;99.90;;;;;;5053422;28;20033;-72
2022/11/20 11:47:40;;;;;;;4.00;3.13;;;3.40;99.90;;;;;;5054685;28;20032;-72
2022/11/20 11:50:09;;;;;;;4.57;2.40;;;3.40;99.90;;;;;;5053867;28;20020;-72
2022/11/20 11:52:59;;;;;;;4.35;2.00;;;3.50;99.90;;;;;;5054233;28;20031;-72
2022/11/20 11:56:08;;;;;;;6.10;2.40;;;3.50;99.90;;;;;;5053769;28;20072;-72
2022/11/20 11:58:51;;;;;;;4.85;2.80;;;3.50;99.90;;;;;;5051408;28;20086;-72
2022/11/20 12:01:47;;;;;;;2.90;2.13;;;3.60;99.90;;;;;;5053804;28;20481;-72
2022/11/20 12:04:34;;;;;;;2.00;1.42;;;3.60;99.90;;;;;;5053353;28;20049;-72
2022/11/20 12:07:27;;;;;;;2.65;1.75;;;3.60;99.90;;;;;;5054017;28;20487;-72
2022/11/20 12:09:56;;;;;;;2.13;1.80;;;3.70;99.90;;;;;;5054033;28;20053;-72
2022/11/20 12:12:36;;;;;;;2.80;1.70;;;3.60;99.90;;;;;;5053132;28;20396;-72
2022/11/20 12:15:04;;;;;;;2.42;1.63;;;3.70;99.90;;;;;;5053412;28;20036;-72
2022/11/20 12:17:29;;;;;;;2.28;1.50;;;3.80;99.90;;;;;;5053544;28;20443;-72
2022/11/20 12:19:55;;;;;;;3.42;1.63;;;3.90;99.90;;;;;;5053488;28;20033;-72
2022/11/20 12:23:08;;;;;;;3.78;1.75;;;4.10;99.90;;;;;;5051639;28;20029;-72
2022/11/20 12:25:38;;;;;;;3.55;1.98;;;4.50;99.90;;;;;;4992306;28;20391;-72
2022/11/20 12:28:25;;;;;;;3.17;1.80;;;4.80;99.90;;;;;;4992417;28;20030;-72
2022/11/20 12:31:14;;;;;;;3.92;1.95;;;4.90;99.90;;;;;;5035244;28;20079;-72
2022/11/20 12:34:01;;;;;;;2.35;1.40;;;5.20;99.90;;;;;;5053223;28;20025;-71
2022/11/20 12:36:56;;;;;;;2.95;1.90;;;5.40;99.90;;;;;;5052044;28;20099;-72
2022/11/20 12:39:26;;;;;;;5.57;1.67;;;5.50;99.90;;;;;;5053390;28;20032;-72
2022/11/20 12:45:28;;;;;;;5.25;1.60;;;6.00;99.90;;;;;;5053710;28;20395;-72
2022/11/20 12:48:14;;;;;;;3.03;1.73;;;6.00;99.90;;;;;;5053204;28;20025;-72
2022/11/20 12:51:22;;;;;;;2.50;1.63;;;6.00;99.90;;;;;;5053907;28;20376;-72
2022/11/20 12:54:17;;;;;;;3.65;2.03;;;6.30;99.90;;;;;;5055191;28;20027;-72
2022/11/20 12:56:48;;;;;;;3.45;1.42;;;6.70;99.90;;;;;;5057798;28;20025;-70
2022/11/20 12:59:20;;;;;;;4.00;1.88;;;7.30;99.90;;;;;;5057288;28;20053;-70
2022/11/20 13:01:56;;;;;;;4.78;1.48;;;7.60;99.90;;;;;;5055838;28;20568;-72
2022/11/20 13:04:45;;;;;;;7.00;1.50;;;8.10;99.90;;;;;;5056611;28;20029;-73
2022/11/20 13:07:13;;;;;;;2.78;1.77;;;8.40;99.90;;;;;;5057397;28;20029;-73
2022/11/20 13:09:47;;;;;;;4.15;1.70;;;8.10;99.90;;;;;;5057304;28;20028;-72
2022/11/20 13:12:22;;;;;;;2.88;1.40;;;7.90;99.90;;;;;;5057299;28;20029;-72
2022/11/20 13:15:19;;;;;;;4.68;1.63;;;7.70;99.90;;;;;;5056815;28;20072;-72
2022/11/20 13:17:54;;;;;;;1.70;1.45;;;7.20;99.90;;;;;;5056872;28;20028;-72
2022/11/20 13:20:20;;;;;;;3.03;1.65;;;6.80;99.90;;;;;;5072353;28;20503;-72
2022/11/20 13:22:48;;;;;;;2.42;2.03;;;6.30;99.90;;;;;;5056844;28;20431;-72